sensor_id;sensor_type;location;lat;lon;timestamp;P1;durP1;ratioP1;P2;durP2;ratioP2
27899;SDS011;15243;50.726;7.080;2022-10-13T00:00:12;25.42;;;14.55;;
27899;SDS011;15243;50.726;7.080;2022-10-13T00:02:39;29.92;;;14.57;;
27899;SDS011;15243;50.726;7.080;2022-10-13T00:05:06;29.23;;;15.32;;
27899;SDS011;15243;50.726;7.080;2022-10-13T00:07:33;27.90;;;14.75;;
27899;SDS011;15243;50.726;7.080;2022-10-13T00:10:00;27.15;;;14.40;;
27899;SDS011;15243;50.726;7.080;2022-10-13T00:12:27;30.67;;;15.40;;
27899;SDS011;15243;50.726;7.080;2022-10-13T00:14:54;31.77;;;16.65;;
27899;SDS011;15243;50.726;7.080;2022-10-13T00:17:21;33.30;;;15.77;;
27899;SDS011;15243;50.726;7.080;2022-10-13T00:19:48;28.75;;;15.07;;
27899;SDS011;15243;50.726;7.080;2022-10-13T00:22:14;29.02;;;15.55;;
27899;SDS011;15243;50.726;7.080;2022-10-13T00:24:42;32.53;;;15.70;;
27899;SDS011;15243;50.726;7.080;2022-10-13T00:27:09;25.35;;;14.30;;
27899;SDS011;15243;50.726;7.080;2022-10-13T00:29:36;29.15;;;15.38;;
27899;SDS011;15243;50.726;7.080;2022-10-13T00:32:02;28.75;;;16.02;;
27899;SDS011;15243;50.726;7.080;2022-10-13T00:34:29;31.05;;;15.65;;
27899;SDS011;15243;50.726;7.080;2022-10-13T00:36:56;27.00;;;16.27;;
27899;SDS011;15243;50.726;7.080;2022-10-13T00:39:23;36.33;;;16.83;;
27899;SDS011;15243;50.726;7.080;2022-10-13T00:41:50;34.95;;;17.75;;
27899;SDS011;15243;50.726;7.080;2022-10-13T00:49:51;26.95;;;14.75;;
27899;SDS011;15243;50.726;7.080;2022-10-13T00:52:19;30.58;;;15.48;;
27899;SDS011;15243;50.726;7.080;2022-10-13T00:54:48;33.97;;;17.02;;
27899;SDS011;15243;50.726;7.080;2022-10-13T00:57:16;34.92;;;16.73;;
27899;SDS011;15243;50.726;7.080;2022-10-13T00:59:45;26.92;;;15.55;;
27899;SDS011;15243;50.726;7.080;2022-10-13T01:02:13;33.53;;;16.38;;
27899;SDS011;15243;50.726;7.080;2022-10-13T01:04:42;29.17;;;15.77;;
27899;SDS011;15243;50.726;7.080;2022-10-13T01:07:12;32.80;;;16.90;;
27899;SDS011;15243;50.726;7.080;2022-10-13T01:09:41;33.20;;;16.92;;
27899;SDS011;15243;50.726;7.080;2022-10-13T01:12:22;29.42;;;15.18;;
27899;SDS011;15243;50.726;7.080;2022-10-13T01:18:14;32.50;;;15.98;;
27899;SDS011;15243;50.726;7.080;2022-10-13T01:21:12;31.55;;;17.38;;
27899;SDS011;15243;50.726;7.080;2022-10-13T01:45:49;34.22;;;17.75;;
27899;SDS011;15243;50.726;7.080;2022-10-13T01:48:21;28.73;;;16.30;;
27899;SDS011;15243;50.726;7.080;2022-10-13T01:50:49;35.72;;;17.50;;
27899;SDS011;15243;50.726;7.080;2022-10-13T01:53:17;29.05;;;16.83;;
27899;SDS011;15243;50.726;7.080;2022-10-13T01:55:52;31.77;;;18.25;;
27899;SDS011;15243;50.726;7.080;2022-10-13T01:58:22;37.78;;;18.20;;
27899;SDS011;15243;50.726;7.080;2022-10-13T02:06:33;32.17;;;16.50;;
27899;SDS011;15243;50.726;7.080;2022-10-13T02:09:26;34.28;;;17.25;;
27899;SDS011;15243;50.726;7.080;2022-10-13T02:14:56;31.45;;;17.52;;
27899;SDS011;15243;50.726;7.080;2022-10-13T02:17:25;30.27;;;16.35;;
27899;SDS011;15243;50.726;7.080;2022-10-13T02:19:53;30.35;;;16.60;;
27899;SDS011;15243;50.726;7.080;2022-10-13T02:22:21;33.55;;;17.52;;
27899;SDS011;15243;50.726;7.080;2022-10-13T02:24:51;31.33;;;16.52;;
27899;SDS011;15243;50.726;7.080;2022-10-13T02:27:18;36.13;;;16.65;;
27899;SDS011;15243;50.726;7.080;2022-10-13T02:29:53;32.97;;;17.25;;
27899;SDS011;15243;50.726;7.080;2022-10-13T02:32:21;33.05;;;17.75;;
27899;SDS011;15243;50.726;7.080;2022-10-13T02:34:49;31.40;;;18.35;;
27899;SDS011;15243;50.726;7.080;2022-10-13T02:37:16;36.35;;;17.52;;
27899;SDS011;15243;50.726;7.080;2022-10-13T02:39:43;32.00;;;18.17;;
27899;SDS011;15243;50.726;7.080;2022-10-13T02:42:10;31.45;;;16.73;;
27899;SDS011;15243;50.726;7.080;2022-10-13T02:44:37;32.58;;;16.90;;
27899;SDS011;15243;50.726;7.080;2022-10-13T02:47:05;32.63;;;17.05;;
27899;SDS011;15243;50.726;7.080;2022-10-13T02:49:32;36.22;;;18.77;;
27899;SDS011;15243;50.726;7.080;2022-10-13T02:51:58;38.83;;;17.63;;
27899;SDS011;15243;50.726;7.080;2022-10-13T02:54:25;29.13;;;17.75;;
27899;SDS011;15243;50.726;7.080;2022-10-13T02:56:52;29.98;;;16.77;;
27899;SDS011;15243;50.726;7.080;2022-10-13T02:59:19;38.03;;;17.55;;
27899;SDS011;15243;50.726;7.080;2022-10-13T03:01:46;35.38;;;18.00;;
27899;SDS011;15243;50.726;7.080;2022-10-13T03:04:13;29.60;;;16.58;;
27899;SDS011;15243;50.726;7.080;2022-10-13T03:06:39;28.15;;;16.15;;
27899;SDS011;15243;50.726;7.080;2022-10-13T03:09:06;28.20;;;15.70;;
27899;SDS011;15243;50.726;7.080;2022-10-13T03:11:33;28.25;;;16.10;;
27899;SDS011;15243;50.726;7.080;2022-10-13T03:14:00;39.92;;;17.23;;
27899;SDS011;15243;50.726;7.080;2022-10-13T03:16:27;30.20;;;15.85;;
27899;SDS011;15243;50.726;7.080;2022-10-13T03:18:54;29.65;;;15.73;;
27899;SDS011;15243;50.726;7.080;2022-10-13T03:21:20;28.48;;;17.10;;
27899;SDS011;15243;50.726;7.080;2022-10-13T03:23:47;29.40;;;16.83;;
27899;SDS011;15243;50.726;7.080;2022-10-13T03:26:14;34.53;;;17.35;;
27899;SDS011;15243;50.726;7.080;2022-10-13T03:28:41;30.00;;;16.42;;
27899;SDS011;15243;50.726;7.080;2022-10-13T03:31:09;39.55;;;17.38;;
27899;SDS011;15243;50.726;7.080;2022-10-13T03:33:38;34.67;;;17.88;;
27899;SDS011;15243;50.726;7.080;2022-10-13T03:36:05;32.05;;;17.85;;
27899;SDS011;15243;50.726;7.080;2022-10-13T03:38:33;37.00;;;17.67;;
27899;SDS011;15243;50.726;7.080;2022-10-13T03:41:07;40.08;;;18.50;;
27899;SDS011;15243;50.726;7.080;2022-10-13T03:43:36;30.95;;;17.60;;
27899;SDS011;15243;50.726;7.080;2022-10-13T03:46:04;33.42;;;17.75;;
27899;SDS011;15243;50.726;7.080;2022-10-13T03:48:32;30.48;;;16.83;;
27899;SDS011;15243;50.726;7.080;2022-10-13T03:51:07;26.92;;;17.40;;
27899;SDS011;15243;50.726;7.080;2022-10-13T03:53:36;32.40;;;17.38;;
27899;SDS011;15243;50.726;7.080;2022-10-13T03:56:03;39.92;;;18.02;;
27899;SDS011;15243;50.726;7.080;2022-10-13T03:58:31;37.15;;;17.52;;
27899;SDS011;15243;50.726;7.080;2022-10-13T04:01:01;32.83;;;18.13;;
27899;SDS011;15243;50.726;7.080;2022-10-13T04:03:30;35.70;;;19.17;;
27899;SDS011;15243;50.726;7.080;2022-10-13T04:06:00;31.02;;;17.35;;
27899;SDS011;15243;50.726;7.080;2022-10-13T04:08:29;32.70;;;17.80;;
27899;SDS011;15243;50.726;7.080;2022-10-13T04:11:00;33.97;;;18.52;;
27899;SDS011;15243;50.726;7.080;2022-10-13T04:13:30;36.97;;;18.67;;
27899;SDS011;15243;50.726;7.080;2022-10-13T04:16:00;40.53;;;19.40;;
27899;SDS011;15243;50.726;7.080;2022-10-13T04:18:32;31.13;;;18.13;;
27899;SDS011;15243;50.726;7.080;2022-10-13T04:20:59;28.80;;;16.60;;
27899;SDS011;15243;50.726;7.080;2022-10-13T04:23:26;33.13;;;17.98;;
27899;SDS011;15243;50.726;7.080;2022-10-13T04:25:53;36.22;;;19.45;;
27899;SDS011;15243;50.726;7.080;2022-10-13T04:28:21;33.17;;;18.10;;
27899;SDS011;15243;50.726;7.080;2022-10-13T04:30:48;34.45;;;17.88;;
27899;SDS011;15243;50.726;7.080;2022-10-13T04:33:15;30.33;;;17.95;;
27899;SDS011;15243;50.726;7.080;2022-10-13T04:35:42;37.63;;;17.83;;
27899;SDS011;15243;50.726;7.080;2022-10-13T04:38:09;36.60;;;18.88;;
27899;SDS011;15243;50.726;7.080;2022-10-13T04:40:36;28.67;;;17.40;;
27899;SDS011;15243;50.726;7.080;2022-10-13T04:43:02;29.20;;;17.02;;
27899;SDS011;15243;50.726;7.080;2022-10-13T04:45:29;28.45;;;16.23;;
27899;SDS011;15243;50.726;7.080;2022-10-13T04:47:56;35.53;;;18.67;;
27899;SDS011;15243;50.726;7.080;2022-10-13T04:50:23;30.75;;;17.50;;
27899;SDS011;15243;50.726;7.080;2022-10-13T04:52:50;35.13;;;17.55;;
27899;SDS011;15243;50.726;7.080;2022-10-13T04:55:17;32.88;;;17.80;;
27899;SDS011;15243;50.726;7.080;2022-10-13T04:57:43;32.65;;;16.90;;
27899;SDS011;15243;50.726;7.080;2022-10-13T05:00:10;39.33;;;19.30;;
27899;SDS011;15243;50.726;7.080;2022-10-13T05:02:38;34.45;;;17.88;;
27899;SDS011;15243;50.726;7.080;2022-10-13T05:05:05;33.58;;;18.25;;
27899;SDS011;15243;50.726;7.080;2022-10-13T05:07:32;36.35;;;18.00;;
27899;SDS011;15243;50.726;7.080;2022-10-13T05:09:59;38.17;;;18.98;;
27899;SDS011;15243;50.726;7.080;2022-10-13T05:12:25;33.03;;;18.05;;
27899;SDS011;15243;50.726;7.080;2022-10-13T05:14:52;31.80;;;17.83;;
27899;SDS011;15243;50.726;7.080;2022-10-13T05:17:19;36.45;;;17.83;;
27899;SDS011;15243;50.726;7.080;2022-10-13T05:19:47;38.72;;;18.77;;
27899;SDS011;15243;50.726;7.080;2022-10-13T05:22:14;29.70;;;16.63;;
27899;SDS011;15243;50.726;7.080;2022-10-13T05:24:41;28.70;;;16.65;;
27899;SDS011;15243;50.726;7.080;2022-10-13T05:27:09;33.15;;;16.85;;
27899;SDS011;15243;50.726;7.080;2022-10-13T05:29:37;27.90;;;16.25;;
27899;SDS011;15243;50.726;7.080;2022-10-13T05:32:05;32.92;;;17.30;;
27899;SDS011;15243;50.726;7.080;2022-10-13T05:34:33;28.27;;;16.05;;
27899;SDS011;15243;50.726;7.080;2022-10-13T05:37:00;26.90;;;15.40;;
27899;SDS011;15243;50.726;7.080;2022-10-13T05:39:27;36.55;;;17.02;;
27899;SDS011;15243;50.726;7.080;2022-10-13T05:41:54;26.63;;;15.18;;
27899;SDS011;15243;50.726;7.080;2022-10-13T05:44:20;30.17;;;14.77;;
27899;SDS011;15243;50.726;7.080;2022-10-13T05:46:47;28.27;;;14.93;;
27899;SDS011;15243;50.726;7.080;2022-10-13T05:49:15;32.88;;;15.40;;
27899;SDS011;15243;50.726;7.080;2022-10-13T05:51:43;28.50;;;15.25;;
27899;SDS011;15243;50.726;7.080;2022-10-13T05:57:13;28.63;;;13.98;;
27899;SDS011;15243;50.726;7.080;2022-10-13T05:59:51;32.63;;;16.92;;
27899;SDS011;15243;50.726;7.080;2022-10-13T06:02:23;31.90;;;16.05;;
27899;SDS011;15243;50.726;7.080;2022-10-13T06:04:59;29.67;;;15.77;;
27899;SDS011;15243;50.726;7.080;2022-10-13T06:07:29;34.45;;;17.23;;
27899;SDS011;15243;50.726;7.080;2022-10-13T06:09:57;29.30;;;16.60;;
27899;SDS011;15243;50.726;7.080;2022-10-13T06:12:24;31.30;;;15.60;;
27899;SDS011;15243;50.726;7.080;2022-10-13T06:14:51;36.28;;;17.58;;
27899;SDS011;15243;50.726;7.080;2022-10-13T06:17:17;31.00;;;15.15;;
27899;SDS011;15243;50.726;7.080;2022-10-13T06:19:44;27.45;;;16.30;;
27899;SDS011;15243;50.726;7.080;2022-10-13T06:22:11;32.25;;;15.85;;
27899;SDS011;15243;50.726;7.080;2022-10-13T06:24:38;27.00;;;15.43;;
27899;SDS011;15243;50.726;7.080;2022-10-13T06:27:05;28.92;;;15.95;;
27899;SDS011;15243;50.726;7.080;2022-10-13T06:29:32;25.38;;;15.10;;
27899;SDS011;15243;50.726;7.080;2022-10-13T06:31:58;30.33;;;14.90;;
27899;SDS011;15243;50.726;7.080;2022-10-13T06:34:25;26.75;;;16.10;;
27899;SDS011;15243;50.726;7.080;2022-10-13T06:36:52;30.17;;;16.05;;
27899;SDS011;15243;50.726;7.080;2022-10-13T06:39:19;26.63;;;15.38;;
27899;SDS011;15243;50.726;7.080;2022-10-13T06:41:46;33.60;;;17.20;;
27899;SDS011;15243;50.726;7.080;2022-10-13T06:44:13;34.53;;;17.33;;
27899;SDS011;15243;50.726;7.080;2022-10-13T06:46:40;35.90;;;17.40;;
27899;SDS011;15243;50.726;7.080;2022-10-13T06:49:07;31.05;;;16.90;;
27899;SDS011;15243;50.726;7.080;2022-10-13T06:51:35;33.10;;;17.65;;
27899;SDS011;15243;50.726;7.080;2022-10-13T06:54:02;34.78;;;16.92;;
27899;SDS011;15243;50.726;7.080;2022-10-13T06:56:29;39.55;;;17.33;;
27899;SDS011;15243;50.726;7.080;2022-10-13T06:58:56;28.55;;;16.17;;
27899;SDS011;15243;50.726;7.080;2022-10-13T07:01:23;32.20;;;16.17;;
27899;SDS011;15243;50.726;7.080;2022-10-13T07:03:50;29.45;;;16.65;;
27899;SDS011;15243;50.726;7.080;2022-10-13T07:06:18;28.45;;;16.17;;
27899;SDS011;15243;50.726;7.080;2022-10-13T07:08:44;34.90;;;17.00;;
27899;SDS011;15243;50.726;7.080;2022-10-13T07:11:12;29.33;;;15.70;;
27899;SDS011;15243;50.726;7.080;2022-10-13T07:13:42;33.15;;;16.88;;
27899;SDS011;15243;50.726;7.080;2022-10-13T07:16:12;30.33;;;16.45;;
27899;SDS011;15243;50.726;7.080;2022-10-13T07:18:40;33.15;;;17.95;;
27899;SDS011;15243;50.726;7.080;2022-10-13T07:21:07;30.98;;;16.50;;
27899;SDS011;15243;50.726;7.080;2022-10-13T07:23:34;31.58;;;17.40;;
27899;SDS011;15243;50.726;7.080;2022-10-13T07:26:04;34.80;;;17.52;;
27899;SDS011;15243;50.726;7.080;2022-10-13T07:28:32;41.03;;;18.10;;
27899;SDS011;15243;50.726;7.080;2022-10-13T07:30:59;35.63;;;17.25;;
27899;SDS011;15243;50.726;7.080;2022-10-13T07:33:33;31.90;;;16.60;;
27899;SDS011;15243;50.726;7.080;2022-10-13T07:35:59;47.03;;;18.33;;
27899;SDS011;15243;50.726;7.080;2022-10-13T07:38:26;49.08;;;17.30;;
27899;SDS011;15243;50.726;7.080;2022-10-13T07:40:53;38.67;;;17.83;;
27899;SDS011;15243;50.726;7.080;2022-10-13T07:43:20;45.03;;;19.52;;
27899;SDS011;15243;50.726;7.080;2022-10-13T07:45:46;32.33;;;17.60;;
27899;SDS011;15243;50.726;7.080;2022-10-13T07:48:13;34.67;;;18.10;;
27899;SDS011;15243;50.726;7.080;2022-10-13T07:50:41;32.03;;;18.75;;
27899;SDS011;15243;50.726;7.080;2022-10-13T07:53:07;33.03;;;17.98;;
27899;SDS011;15243;50.726;7.080;2022-10-13T07:55:35;39.08;;;19.88;;
27899;SDS011;15243;50.726;7.080;2022-10-13T07:58:02;35.90;;;18.83;;
27899;SDS011;15243;50.726;7.080;2022-10-13T08:00:29;34.50;;;18.58;;
27899;SDS011;15243;50.726;7.080;2022-10-13T08:02:56;39.45;;;18.92;;
27899;SDS011;15243;50.726;7.080;2022-10-13T08:05:23;35.17;;;17.10;;
27899;SDS011;15243;50.726;7.080;2022-10-13T08:07:49;32.47;;;16.45;;
27899;SDS011;15243;50.726;7.080;2022-10-13T08:10:22;27.67;;;15.80;;
27899;SDS011;15243;50.726;7.080;2022-10-13T08:12:49;26.90;;;15.25;;
27899;SDS011;15243;50.726;7.080;2022-10-13T08:15:16;32.15;;;15.95;;
27899;SDS011;15243;50.726;7.080;2022-10-13T08:17:42;27.33;;;15.63;;
27899;SDS011;15243;50.726;7.080;2022-10-13T08:20:09;27.30;;;14.85;;
27899;SDS011;15243;50.726;7.080;2022-10-13T08:22:36;34.50;;;16.60;;
27899;SDS011;15243;50.726;7.080;2022-10-13T08:25:03;24.85;;;14.50;;
27899;SDS011;15243;50.726;7.080;2022-10-13T08:27:32;28.77;;;15.25;;
27899;SDS011;15243;50.726;7.080;2022-10-13T08:30:16;28.60;;;15.25;;
27899;SDS011;15243;50.726;7.080;2022-10-13T08:32:43;25.02;;;14.60;;
27899;SDS011;15243;50.726;7.080;2022-10-13T08:35:09;40.88;;;17.10;;
27899;SDS011;15243;50.726;7.080;2022-10-13T08:37:36;33.50;;;15.60;;
27899;SDS011;15243;50.726;7.080;2022-10-13T08:40:03;26.08;;;14.48;;
27899;SDS011;15243;50.726;7.080;2022-10-13T08:42:30;29.92;;;14.90;;
27899;SDS011;15243;50.726;7.080;2022-10-13T08:44:59;23.23;;;13.23;;
27899;SDS011;15243;50.726;7.080;2022-10-13T08:47:48;33.00;;;14.82;;
27899;SDS011;15243;50.726;7.080;2022-10-13T08:50:29;28.67;;;14.32;;
27899;SDS011;15243;50.726;7.080;2022-10-13T08:55:46;28.73;;;13.45;;
27899;SDS011;15243;50.726;7.080;2022-10-13T08:58:32;19.85;;;12.68;;
27899;SDS011;15243;50.726;7.080;2022-10-13T09:03:28;22.52;;;12.38;;
27899;SDS011;15243;50.726;7.080;2022-10-13T09:06:00;24.00;;;12.65;;
27899;SDS011;15243;50.726;7.080;2022-10-13T09:08:40;23.33;;;11.95;;
27899;SDS011;15243;50.726;7.080;2022-10-13T09:11:12;25.83;;;13.23;;
27899;SDS011;15243;50.726;7.080;2022-10-13T09:13:39;24.23;;;12.75;;
27899;SDS011;15243;50.726;7.080;2022-10-13T09:16:06;30.88;;;13.10;;
27899;SDS011;15243;50.726;7.080;2022-10-13T09:18:33;24.73;;;14.52;;
27899;SDS011;15243;50.726;7.080;2022-10-13T09:21:08;24.95;;;12.23;;
27899;SDS011;15243;50.726;7.080;2022-10-13T09:23:43;26.55;;;12.93;;
27899;SDS011;15243;50.726;7.080;2022-10-13T09:26:18;28.85;;;14.30;;
27899;SDS011;15243;50.726;7.080;2022-10-13T09:28:47;24.65;;;13.68;;
27899;SDS011;15243;50.726;7.080;2022-10-13T09:33:57;40.15;;;14.50;;
27899;SDS011;15243;50.726;7.080;2022-10-13T09:36:26;26.77;;;13.07;;
27899;SDS011;15243;50.726;7.080;2022-10-13T09:41:52;24.05;;;11.98;;
27899;SDS011;15243;50.726;7.080;2022-10-13T09:44:44;23.42;;;12.02;;
27899;SDS011;15243;50.726;7.080;2022-10-13T09:47:18;24.33;;;12.32;;
27899;SDS011;15243;50.726;7.080;2022-10-13T09:50:00;24.75;;;11.73;;
27899;SDS011;15243;50.726;7.080;2022-10-13T09:52:39;19.73;;;11.10;;
27899;SDS011;15243;50.726;7.080;2022-10-13T09:55:25;23.80;;;11.18;;
27899;SDS011;15243;50.726;7.080;2022-10-13T09:58:43;20.67;;;10.03;;
27899;SDS011;15243;50.726;7.080;2022-10-13T10:00:53;26.95;;;11.65;;
27899;SDS011;15243;50.726;7.080;2022-10-13T10:03:21;23.42;;;10.23;;
27899;SDS011;15243;50.726;7.080;2022-10-13T10:05:59;23.42;;;10.27;;
27899;SDS011;15243;50.726;7.080;2022-10-13T10:08:42;18.35;;;9.18;;
27899;SDS011;15243;50.726;7.080;2022-10-13T10:11:32;21.20;;;8.82;;
27899;SDS011;15243;50.726;7.080;2022-10-13T10:14:10;19.80;;;9.25;;
27899;SDS011;15243;50.726;7.080;2022-10-13T10:25:35;15.02;;;8.55;;
27899;SDS011;15243;50.726;7.080;2022-10-13T10:33:52;13.07;;;7.93;;
27899;SDS011;15243;50.726;7.080;2022-10-13T10:36:26;17.48;;;7.78;;
27899;SDS011;15243;50.726;7.080;2022-10-13T10:41:54;20.50;;;8.68;;
27899;SDS011;15243;50.726;7.080;2022-10-13T10:44:45;21.83;;;8.82;;
27899;SDS011;15243;50.726;7.080;2022-10-13T10:47:27;15.13;;;8.25;;
27899;SDS011;15243;50.726;7.080;2022-10-13T10:50:03;16.23;;;7.90;;
27899;SDS011;15243;50.726;7.080;2022-10-13T10:52:35;17.27;;;7.60;;
27899;SDS011;15243;50.726;7.080;2022-10-13T10:55:12;12.75;;;6.82;;
27899;SDS011;15243;50.726;7.080;2022-10-13T10:57:55;14.30;;;7.22;;
27899;SDS011;15243;50.726;7.080;2022-10-13T11:00:27;16.30;;;7.47;;
27899;SDS011;15243;50.726;7.080;2022-10-13T11:03:42;18.08;;;7.63;;
27899;SDS011;15243;50.726;7.080;2022-10-13T11:08:38;15.48;;;7.47;;
27899;SDS011;15243;50.726;7.080;2022-10-13T11:13:54;16.48;;;8.45;;
27899;SDS011;15243;50.726;7.080;2022-10-13T11:16:26;17.42;;;7.25;;
27899;SDS011;15243;50.726;7.080;2022-10-13T11:19:02;14.98;;;7.18;;
27899;SDS011;15243;50.726;7.080;2022-10-13T11:29:54;14.00;;;6.45;;
27899;SDS011;15243;50.726;7.080;2022-10-13T11:37:26;13.25;;;7.22;;
27899;SDS011;15243;50.726;7.080;2022-10-13T11:54:40;14.50;;;6.32;;
27899;SDS011;15243;50.726;7.080;2022-10-13T11:57:16;18.15;;;6.88;;
27899;SDS011;15243;50.726;7.080;2022-10-13T11:59:45;14.40;;;7.28;;
27899;SDS011;15243;50.726;7.080;2022-10-13T12:02:21;19.25;;;7.70;;
27899;SDS011;15243;50.726;7.080;2022-10-13T12:05:06;21.65;;;6.57;;
27899;SDS011;15243;50.726;7.080;2022-10-13T12:07:49;14.48;;;7.07;;
27899;SDS011;15243;50.726;7.080;2022-10-13T12:10:34;14.63;;;6.68;;
27899;SDS011;15243;50.726;7.080;2022-10-13T12:13:03;17.98;;;7.03;;
27899;SDS011;15243;50.726;7.080;2022-10-13T12:15:34;15.93;;;7.00;;
27899;SDS011;15243;50.726;7.080;2022-10-13T12:18:24;11.10;;;6.38;;
27899;SDS011;15243;50.726;7.080;2022-10-13T12:21:09;17.88;;;7.40;;
27899;SDS011;15243;50.726;7.080;2022-10-13T12:23:38;18.02;;;7.40;;
27899;SDS011;15243;50.726;7.080;2022-10-13T12:26:18;13.20;;;6.80;;
27899;SDS011;15243;50.726;7.080;2022-10-13T12:28:52;18.85;;;6.93;;
27899;SDS011;15243;50.726;7.080;2022-10-13T12:31:27;17.80;;;6.80;;
27899;SDS011;15243;50.726;7.080;2022-10-13T12:37:01;15.10;;;7.25;;
27899;SDS011;15243;50.726;7.080;2022-10-13T12:39:31;16.27;;;7.15;;
27899;SDS011;15243;50.726;7.080;2022-10-13T12:42:00;11.43;;;6.15;;
27899;SDS011;15243;50.726;7.080;2022-10-13T12:44:29;22.67;;;7.78;;
27899;SDS011;15243;50.726;7.080;2022-10-13T12:47:01;16.88;;;7.00;;
27899;SDS011;15243;50.726;7.080;2022-10-13T12:54:29;18.33;;;7.07;;
27899;SDS011;15243;50.726;7.080;2022-10-13T12:56:58;15.07;;;7.47;;
27899;SDS011;15243;50.726;7.080;2022-10-13T12:59:29;16.77;;;7.68;;
27899;SDS011;15243;50.726;7.080;2022-10-13T13:01:58;17.92;;;7.95;;
27899;SDS011;15243;50.726;7.080;2022-10-13T13:04:31;14.60;;;7.93;;
27899;SDS011;15243;50.726;7.080;2022-10-13T13:07:21;13.80;;;7.53;;
27899;SDS011;15243;50.726;7.080;2022-10-13T13:10:00;15.20;;;8.30;;
27899;SDS011;15243;50.726;7.080;2022-10-13T13:12:29;18.55;;;8.23;;
27899;SDS011;15243;50.726;7.080;2022-10-13T13:14:56;16.42;;;8.40;;
27899;SDS011;15243;50.726;7.080;2022-10-13T13:17:25;12.77;;;6.97;;
27899;SDS011;15243;50.726;7.080;2022-10-13T13:20:47;18.52;;;7.32;;
27899;SDS011;15243;50.726;7.080;2022-10-13T13:23:07;30.92;;;7.55;;
27899;SDS011;15243;50.726;7.080;2022-10-13T13:25:33;16.33;;;7.47;;
27899;SDS011;15243;50.726;7.080;2022-10-13T13:28:02;13.80;;;7.28;;
27899;SDS011;15243;50.726;7.080;2022-10-13T13:30:29;15.40;;;7.72;;
27899;SDS011;15243;50.726;7.080;2022-10-13T13:32:56;17.90;;;7.85;;
27899;SDS011;15243;50.726;7.080;2022-10-13T13:35:23;19.10;;;7.68;;
27899;SDS011;15243;50.726;7.080;2022-10-13T13:37:50;16.60;;;8.32;;
27899;SDS011;15243;50.726;7.080;2022-10-13T13:40:27;15.43;;;7.88;;
27899;SDS011;15243;50.726;7.080;2022-10-13T13:42:54;15.68;;;8.57;;
27899;SDS011;15243;50.726;7.080;2022-10-13T13:45:21;17.15;;;8.60;;
27899;SDS011;15243;50.726;7.080;2022-10-13T13:47:50;18.38;;;8.25;;
27899;SDS011;15243;50.726;7.080;2022-10-13T13:50:21;16.20;;;8.50;;
27899;SDS011;15243;50.726;7.080;2022-10-13T13:55:16;14.85;;;7.93;;
27899;SDS011;15243;50.726;7.080;2022-10-13T13:57:43;16.17;;;7.97;;
27899;SDS011;15243;50.726;7.080;2022-10-13T14:00:11;19.73;;;7.95;;
27899;SDS011;15243;50.726;7.080;2022-10-13T14:02:39;13.45;;;8.60;;
27899;SDS011;15243;50.726;7.080;2022-10-13T14:05:06;17.38;;;8.45;;
27899;SDS011;15243;50.726;7.080;2022-10-13T14:07:33;16.85;;;7.82;;
27899;SDS011;15243;50.726;7.080;2022-10-13T14:10:00;16.48;;;8.05;;
27899;SDS011;15243;50.726;7.080;2022-10-13T14:12:28;21.70;;;8.68;;
27899;SDS011;15243;50.726;7.080;2022-10-13T14:14:55;15.90;;;8.48;;
27899;SDS011;15243;50.726;7.080;2022-10-13T14:17:24;16.55;;;8.82;;
27899;SDS011;15243;50.726;7.080;2022-10-13T14:19:51;18.30;;;8.40;;
27899;SDS011;15243;50.726;7.080;2022-10-13T14:22:18;18.45;;;8.23;;
27899;SDS011;15243;50.726;7.080;2022-10-13T14:24:45;16.30;;;8.82;;
27899;SDS011;15243;50.726;7.080;2022-10-13T14:27:12;18.48;;;8.98;;
27899;SDS011;15243;50.726;7.080;2022-10-13T14:29:39;20.85;;;8.75;;
27899;SDS011;15243;50.726;7.080;2022-10-13T14:32:06;15.60;;;8.85;;
27899;SDS011;15243;50.726;7.080;2022-10-13T14:34:33;15.88;;;8.85;;
27899;SDS011;15243;50.726;7.080;2022-10-13T14:36:59;17.48;;;9.13;;
27899;SDS011;15243;50.726;7.080;2022-10-13T14:39:26;28.10;;;9.60;;
27899;SDS011;15243;50.726;7.080;2022-10-13T14:41:53;18.20;;;8.77;;
27899;SDS011;15243;50.726;7.080;2022-10-13T14:44:20;13.40;;;7.60;;
27899;SDS011;15243;50.726;7.080;2022-10-13T14:46:47;15.88;;;8.70;;
27899;SDS011;15243;50.726;7.080;2022-10-13T14:49:14;16.90;;;9.40;;
27899;SDS011;15243;50.726;7.080;2022-10-13T14:51:41;18.00;;;9.40;;
27899;SDS011;15243;50.726;7.080;2022-10-13T14:54:08;15.88;;;8.55;;
27899;SDS011;15243;50.726;7.080;2022-10-13T14:56:35;13.50;;;8.70;;
27899;SDS011;15243;50.726;7.080;2022-10-13T14:59:03;12.80;;;8.57;;
27899;SDS011;15243;50.726;7.080;2022-10-13T15:01:32;15.82;;;9.35;;
27899;SDS011;15243;50.726;7.080;2022-10-13T15:04:00;17.17;;;7.53;;
27899;SDS011;15243;50.726;7.080;2022-10-13T15:06:27;16.52;;;8.40;;
27899;SDS011;15243;50.726;7.080;2022-10-13T15:08:54;17.73;;;8.82;;
27899;SDS011;15243;50.726;7.080;2022-10-13T15:11:22;16.30;;;8.93;;
27899;SDS011;15243;50.726;7.080;2022-10-13T15:13:50;15.48;;;9.35;;
27899;SDS011;15243;50.726;7.080;2022-10-13T15:16:24;16.67;;;8.50;;
27899;SDS011;15243;50.726;7.080;2022-10-13T15:18:53;12.45;;;7.82;;
27899;SDS011;15243;50.726;7.080;2022-10-13T15:21:22;16.52;;;8.52;;
27899;SDS011;15243;50.726;7.080;2022-10-13T15:23:49;15.68;;;7.78;;
27899;SDS011;15243;50.726;7.080;2022-10-13T15:26:17;19.20;;;8.98;;
27899;SDS011;15243;50.726;7.080;2022-10-13T15:28:45;19.38;;;9.50;;
27899;SDS011;15243;50.726;7.080;2022-10-13T15:31:15;15.25;;;9.75;;
27899;SDS011;15243;50.726;7.080;2022-10-13T15:33:47;14.88;;;9.02;;
27899;SDS011;15243;50.726;7.080;2022-10-13T15:36:17;15.05;;;8.73;;
27899;SDS011;15243;50.726;7.080;2022-10-13T15:38:44;18.23;;;8.75;;
27899;SDS011;15243;50.726;7.080;2022-10-13T15:41:11;15.85;;;9.05;;
27899;SDS011;15243;50.726;7.080;2022-10-13T15:43:38;13.23;;;8.10;;
27899;SDS011;15243;50.726;7.080;2022-10-13T15:46:12;18.80;;;9.00;;
27899;SDS011;15243;50.726;7.080;2022-10-13T15:48:47;16.30;;;8.35;;
27899;SDS011;15243;50.726;7.080;2022-10-13T15:51:14;14.65;;;8.88;;
27899;SDS011;15243;50.726;7.080;2022-10-13T15:53:45;17.90;;;9.25;;
27899;SDS011;15243;50.726;7.080;2022-10-13T15:56:12;20.38;;;9.38;;
27899;SDS011;15243;50.726;7.080;2022-10-13T15:58:40;20.85;;;9.10;;
27899;SDS011;15243;50.726;7.080;2022-10-13T16:01:07;15.55;;;9.55;;
27899;SDS011;15243;50.726;7.080;2022-10-13T16:03:38;18.67;;;9.00;;
27899;SDS011;15243;50.726;7.080;2022-10-13T16:06:06;16.70;;;9.05;;
27899;SDS011;15243;50.726;7.080;2022-10-13T16:08:35;20.05;;;9.30;;
27899;SDS011;15243;50.726;7.080;2022-10-13T16:11:05;16.13;;;8.85;;
27899;SDS011;15243;50.726;7.080;2022-10-13T16:13:34;22.10;;;9.80;;
27899;SDS011;15243;50.726;7.080;2022-10-13T16:16:00;21.02;;;9.25;;
27899;SDS011;15243;50.726;7.080;2022-10-13T16:18:31;16.20;;;9.35;;
27899;SDS011;15243;50.726;7.080;2022-10-13T16:20:59;19.23;;;9.87;;
27899;SDS011;15243;50.726;7.080;2022-10-13T16:23:32;20.02;;;10.40;;
27899;SDS011;15243;50.726;7.080;2022-10-13T16:26:00;18.25;;;9.93;;
27899;SDS011;15243;50.726;7.080;2022-10-13T16:28:27;21.90;;;10.35;;
27899;SDS011;15243;50.726;7.080;2022-10-13T16:30:54;18.63;;;11.18;;
27899;SDS011;15243;50.726;7.080;2022-10-13T16:33:21;18.38;;;10.30;;
27899;SDS011;15243;50.726;7.080;2022-10-13T16:35:48;20.38;;;11.20;;